Time;durP1;ratioP1;P1;durP2;ratioP2;P2;SDS_P1;SDS_P2;PMS_P1;PMS_P2;Temp;Humidity;BMP_temperature;BMP_pressure;BME280_temperature;BME280_humidity;BME280_pressure;Samples;Min_cycle;Max_cycle;Signal;HPM_P1;HPM_P2
2022/01/01 00:01:33;;;;;;;10.40;7.62;;;;;;;6.80;89.72;100716.47;1722762;82;21090;-79
2022/01/01 00:04:00;;;;;;;15.88;11.18;;;;;;;6.81;89.78;100711.72;1722496;83;21066;-79
2022/01/01 00:06:26;;;;;;;10.90;8.88;;;;;;;6.80;89.68;100721.70;1703726;84;21153;-80
2022/01/01 00:08:53;;;;;;;12.50;8.40;;;;;;;6.79;89.67;100729.48;1690725;83;21917;-80
2022/01/01 00:11:20;;;;;;;12.30;8.63;;;;;;;6.77;89.72;100726.80;1689316;84;21540;-80
2022/01/01 00:13:46;;;;;;;13.90;8.80;;;;;;;6.78;89.74;100730.33;1719664;83;21141;-79
2022/01/01 00:16:13;;;;;;;11.38;8.70;;;;;;;6.75;89.81;100729.77;1722823;82;21071;-81
2022/01/01 00:18:40;;;;;;;11.03;8.80;;;;;;;6.76;89.74;100731.99;1722817;83;21298;-80
2022/01/01 00:21:06;;;;;;;10.53;8.45;;;;;;;6.73;89.76;100728.82;1722721;83;22331;-79
2022/01/01 00:23:33;;;;;;;10.25;9.00;;;;;;;6.72;89.81;100728.75;1722467;82;21542;-78
2022/01/01 00:26:00;;;;;;;10.32;9.20;;;;;;;6.70;89.81;100737.88;1722488;82;21126;-79
2022/01/01 00:28:26;;;;;;;11.73;8.25;;;;;;;6.68;89.91;100733.00;1703673;84;21062;-80
2022/01/01 00:30:53;;;;;;;11.70;8.38;;;;;;;6.68;89.92;100735.61;1690933;83;21697;-81
2022/01/01 00:33:20;;;;;;;10.68;8.15;;;;;;;6.66;89.96;100734.63;1689323;84;21752;-79
2022/01/01 00:35:46;;;;;;;10.82;8.45;;;;;;;6.64;89.99;100736.72;1719465;83;21134;-79
2022/01/01 00:38:13;;;;;;;9.45;7.62;;;;;;;6.64;90.06;100731.48;1722848;82;21066;-81
2022/01/01 00:40:39;;;;;;;10.35;8.30;;;;;;;6.65;90.17;100735.48;1722664;82;21608;-80
2022/01/01 00:43:06;;;;;;;11.20;8.45;;;;;;;6.65;90.14;100733.29;1747400;81;21073;-80
2022/01/01 00:45:33;;;;;;;10.35;7.28;;;;;;;6.64;90.15;100739.33;1753198;80;21952;-82
2022/01/01 00:48:00;;;;;;;8.15;6.30;;;;;;;6.63;90.26;100751.53;1753112;81;21094;-79
2022/01/01 00:50:26;;;;;;;9.03;6.83;;;;;;;6.67;90.42;100761.28;1753200;81;21054;-80
2022/01/01 00:52:53;;;;;;;8.65;6.08;;;;;;;6.70;90.45;100765.34;1753234;81;21500;-80
2022/01/01 00:55:20;;;;;;;6.33;5.35;;;;;;;6.72;90.51;100766.29;1753209;81;21102;-80
2022/01/01 00:57:47;;;;;;;5.95;4.62;;;;;;;6.76;90.56;100775.16;1753321;81;21751;-80
2022/01/01 01:00:14;;;;;;;7.60;4.75;;;;;;;6.78;90.54;100774.38;1752896;81;21109;-80
2022/01/01 01:02:40;;;;;;;6.53;4.97;;;;;;;6.79;90.46;100767.41;1753092;81;21130;-80
2022/01/01 01:05:08;;;;;;;8.10;5.62;;;;;;;6.77;90.36;100758.19;1752788;81;21148;-81
2022/01/01 01:07:34;;;;;;;8.08;5.90;;;;;;;6.77;90.40;100767.77;1753013;80;21073;-80
2022/01/01 01:10:02;;;;;;;7.55;6.10;;;;;;;6.77;90.44;100768.66;1753001;81;21765;-80
2022/01/01 01:12:38;;;;;;;9.18;6.55;;;;;;;6.77;90.44;100773.89;1752809;80;21635;-79
2022/01/01 01:14:57;;;;;;;17.30;8.98;;;;;;;6.80;90.53;100775.76;1751135;81;21019;-81
2022/01/01 01:17:24;;;;;;;11.65;7.87;;;;;;;6.88;90.84;100781.30;1753017;81;21070;-81
2022/01/01 01:19:51;;;;;;;8.85;6.85;;;;;;;6.96;91.01;100783.80;1753086;81;21085;-81
2022/01/01 01:22:17;;;;;;;11.40;7.55;;;;;;;7.09;91.26;100795.22;1753325;80;21905;-80
2022/01/01 01:24:44;;;;;;;7.35;6.20;;;;;;;7.24;91.42;100800.17;1753093;80;21794;-81
2022/01/01 01:27:11;;;;;;;6.08;5.10;;;;;;;7.38;91.42;100792.45;1753299;80;21110;-81
2022/01/01 01:29:42;;;;;;;6.20;5.30;;;;;;;7.50;91.38;100802.92;1753079;80;21066;-81
2022/01/01 01:32:07;;;;;;;7.42;5.87;;;;;;;7.62;91.27;100800.78;1752524;81;21094;-81
2022/01/01 01:34:33;;;;;;;5.37;4.55;;;;;;;7.73;91.17;100795.52;1753309;81;21974;-82
2022/01/01 01:37:00;;;;;;;6.33;4.42;;;;;;;7.85;91.08;100802.05;1723500;81;21071;-81
2022/01/01 01:39:27;;;;;;;4.28;3.50;;;;;;;7.94;90.96;100813.76;1753181;80;21170;-81
2022/01/01 01:41:53;;;;;;;9.13;7.37;;;;;;;8.02;90.80;100816.66;1749654;81;21168;-81
2022/01/01 01:44:30;;;;;;;6.28;4.28;;;;;;;8.11;90.70;100828.78;1733836;82;21108;-82
2022/01/01 01:46:59;;;;;;;7.08;4.87;;;;;;;8.17;90.50;100821.56;1729169;82;21800;-81
2022/01/01 01:49:25;;;;;;;6.20;4.78;;;;;;;8.23;90.40;100816.95;1701058;84;21066;-81
2022/01/01 01:51:52;;;;;;;7.60;5.72;;;;;;;8.29;90.32;100823.29;1730385;82;21078;-79
2022/01/01 01:54:19;;;;;;;5.25;4.33;;;;;;;8.34;90.20;100828.72;1733700;82;21093;-80
2022/01/01 01:56:46;;;;;;;5.10;4.60;;;;;;;8.38;90.05;100833.23;1733582;82;21129;-80
2022/01/01 01:59:14;;;;;;;6.10;4.97;;;;;;;8.41;89.94;100838.59;1701131;83;21599;-81
2022/01/01 02:01:41;;;;;;;6.85;4.87;;;;;;;8.45;89.95;100839.63;1733291;82;21065;-81
2022/01/01 02:04:08;;;;;;;6.20;4.75;;;;;;;8.46;89.79;100825.22;1733606;82;21253;-81
2022/01/01 02:06:35;;;;;;;6.72;4.95;;;;;;;8.48;89.60;100830.10;1733507;82;21175;-80
2022/01/01 02:09:01;;;;;;;7.80;5.85;;;;;;;8.47;89.51;100839.26;1733522;82;21731;-80
2022/01/01 02:11:28;;;;;;;6.95;5.05;;;;;;;8.47;89.48;100831.39;1701029;83;21758;-81
2022/01/01 02:18:53;;;;;;;6.67;4.92;;;;;;;8.50;89.39;100816.65;1733429;82;21620;-81
2022/01/01 02:21:20;;;;;;;5.50;4.45;;;;;;;8.50;89.31;100817.96;1732944;82;21043;-81
2022/01/01 02:23:56;;;;;;;8.25;4.37;;;;;;;8.53;89.28;100830.28;1729014;82;21932;-81
2022/01/01 02:26:18;;;;;;;5.92;4.35;;;;;;;8.53;89.25;100832.91;1700181;84;21157;-81
2022/01/01 02:28:47;;;;;;;4.30;3.25;;;;;;;8.54;89.23;100829.02;1699874;84;21102;-82
2022/01/01 02:31:17;;;;;;;5.55;4.00;;;;;;;8.53;89.07;100840.77;1730583;82;21079;-82
2022/01/01 02:33:44;;;;;;;4.03;3.10;;;;;;;8.43;89.07;100829.08;1733862;82;21090;-81
2022/01/01 02:36:11;;;;;;;3.72;3.02;;;;;;;8.55;89.12;100849.59;1701473;84;22433;-80
2022/01/01 02:38:40;;;;;;;5.22;2.72;;;;;;;8.55;88.98;100856.14;1701230;84;21085;-80
2022/01/01 02:41:06;;;;;;;4.80;2.90;;;;;;;8.55;88.96;100874.52;1730665;81;21141;-80
2022/01/01 02:43:45;;;;;;;4.35;3.08;;;;;;;8.55;88.82;100877.13;1725668;81;21016;-80
2022/01/01 02:46:12;;;;;;;3.17;2.30;;;;;;;8.53;88.66;100882.32;1719814;83;21192;-80
2022/01/01 02:48:39;;;;;;;3.80;2.62;;;;;;;8.51;88.58;100889.67;1722968;82;21765;-79
2022/01/01 02:51:05;;;;;;;3.62;2.67;;;;;;;8.51;88.48;100890.98;1723173;82;21059;-79
2022/01/01 02:53:32;;;;;;;3.02;2.20;;;;;;;8.48;88.39;100898.31;1722930;82;21700;-80
2022/01/01 02:55:58;;;;;;;2.92;2.08;;;;;;;8.46;88.29;100904.35;1723006;82;21609;-80
2022/01/01 02:58:25;;;;;;;3.42;1.80;;;;;;;8.45;88.30;100906.09;1703963;84;21137;-80
2022/01/01 03:00:52;;;;;;;2.95;1.85;;;;;;;8.44;88.12;100912.16;1691093;84;21756;-80
2022/01/01 03:03:18;;;;;;;2.17;1.70;;;;;;;8.40;87.91;100911.55;1689611;84;21024;-80
2022/01/01 03:05:45;;;;;;;2.75;1.57;;;;;;;8.37;87.86;100904.47;1719642;83;21544;-80
2022/01/01 03:08:23;;;;;;;2.42;1.45;;;;;;;8.36;87.75;100910.97;1723269;82;21632;-84
2022/01/01 03:10:49;;;;;;;1.98;1.47;;;;;;;8.32;87.62;100923.07;1722584;82;21145;-81
2022/01/01 03:13:17;;;;;;;1.72;1.30;;;;;;;8.30;87.59;100927.38;1704384;84;21791;-81
2022/01/01 03:15:44;;;;;;;2.45;1.30;;;;;;;8.29;87.49;100936.06;1690856;84;21146;-81
2022/01/01 03:18:11;;;;;;;1.67;1.40;;;;;;;8.28;87.37;100938.66;1689562;84;21181;-82
2022/01/01 03:20:37;;;;;;;2.37;1.25;;;;;;;8.26;87.26;100933.73;1719980;83;21090;-81
2022/01/01 03:23:04;;;;;;;2.60;1.40;;;;;;;8.25;87.23;100934.17;1723245;82;21138;-82
2022/01/01 03:25:31;;;;;;;1.80;1.20;;;;;;;8.16;87.13;100920.31;1723032;83;22584;-82
2022/01/01 03:27:57;;;;;;;2.92;1.35;;;;;;;8.22;87.01;100930.14;1723014;83;22443;-81
2022/01/01 03:30:24;;;;;;;1.92;1.42;;;;;;;8.18;86.91;100933.06;1723004;82;21082;-79
2022/01/01 03:32:51;;;;;;;3.42;1.20;;;;;;;8.16;86.89;100928.18;1704026;84;21126;-80
2022/01/01 03:35:17;;;;;;;3.92;1.37;;;;;;;8.14;86.80;100929.82;1690871;84;21145;-79
2022/01/01 03:37:44;;;;;;;2.17;1.20;;;;;;;8.12;86.81;100930.61;1689293;84;22617;-79
2022/01/01 03:40:12;;;;;;;2.45;1.15;;;;;;;8.11;86.77;100943.27;1719982;83;22423;-86
2022/01/01 03:42:38;;;;;;;1.80;1.00;;;;;;;8.12;86.82;100945.91;1729627;81;21062;-79
2022/01/01 03:45:07;;;;;;;2.12;1.05;;;;;;;8.12;86.77;100941.98;1752599;81;21171;-79
2022/01/01 03:47:34;;;;;;;1.50;1.10;;;;;;;8.11;86.67;100942.84;1753045;81;21082;-79
2022/01/01 03:50:01;;;;;;;2.15;1.10;;;;;;;8.09;86.56;100947.52;1753049;81;22980;-79
2022/01/01 03:52:28;;;;;;;1.30;0.90;;;;;;;8.07;86.68;100944.88;1752941;80;21552;-80
2022/01/01 03:54:54;;;;;;;1.02;0.65;;;;;;;8.08;86.69;100950.58;1753068;81;21090;-80
2022/01/01 03:57:21;;;;;;;1.75;1.00;;;;;;;8.09;86.69;100957.62;1753150;81;21635;-80
2022/01/01 03:59:48;;;;;;;2.80;1.02;;;;;;;8.11;86.72;100972.11;1752865;81;21059;-80
2022/01/01 04:02:15;;;;;;;2.15;1.20;;;;;;;8.12;86.71;100970.83;1752895;81;21224;-81
2022/01/01 04:04:42;;;;;;;2.50;0.90;;;;;;;8.13;86.69;100970.43;1752871;81;21074;-80
2022/01/01 04:07:09;;;;;;;1.10;0.90;;;;;;;8.16;86.69;100965.28;1753048;81;21541;-80
2022/01/01 04:09:36;;;;;;;2.17;0.95;;;;;;;8.19;86.63;100971.97;1752861;81;21078;-80
2022/01/01 04:12:04;;;;;;;2.17;1.10;;;;;;;8.18;86.56;100964.53;1752896;81;21042;-81
2022/01/01 04:14:30;;;;;;;2.40;0.90;;;;;;;8.19;86.50;100969.34;1753041;81;23121;-79
2022/01/01 04:16:58;;;;;;;1.75;1.10;;;;;;;8.19;86.46;100966.72;1752831;80;21094;-79
2022/01/01 04:19:35;;;;;;;1.75;1.22;;;;;;;7.89;86.41;100912.28;1753289;81;21011;-78
2022/01/01 04:21:53;;;;;;;2.67;1.30;;;;;;;8.20;86.37;100975.47;1751028;81;21118;-79
2022/01/01 04:24:19;;;;;;;4.17;1.47;;;;;;;8.19;86.37;100970.66;1753337;80;21082;-80
2022/01/01 04:26:46;;;;;;;2.25;1.40;;;;;;;8.19;86.36;100985.08;1753097;81;22227;-80
2022/01/01 04:29:13;;;;;;;2.15;1.37;;;;;;;8.20;86.32;100986.84;1753226;81;21046;-80
2022/01/01 04:31:42;;;;;;;1.90;1.15;;;;;;;8.20;86.34;100988.16;1752374;81;21078;-80
2022/01/01 04:34:09;;;;;;;2.40;1.27;;;;;;;8.21;86.34;100982.52;1752879;81;21070;-80
2022/01/01 04:36:46;;;;;;;4.50;1.62;;;;;;;8.21;86.32;100986.45;1753457;80;21070;-81
2022/01/01 04:39:04;;;;;;;2.08;1.20;;;;;;;8.20;86.27;100980.72;1751326;80;21750;-80
2022/01/01 04:41:31;;;;;;;2.00;1.15;;;;;;;8.21;86.24;100980.78;1753265;80;21477;-80
2022/01/01 04:43:58;;;;;;;1.87;1.20;;;;;;;8.20;86.20;100980.30;1752947;80;21027;-79
2022/01/01 04:46:25;;;;;;;1.77;1.30;;;;;;;8.18;86.15;100984.59;1752781;80;21066;-79
2022/01/01 04:48:51;;;;;;;3.17;1.35;;;;;;;8.18;86.21;100983.27;1752890;81;21101;-79
2022/01/01 04:51:18;;;;;;;2.05;1.20;;;;;;;8.20;86.15;100984.66;1753002;80;23071;-78
2022/01/01 04:53:45;;;;;;;2.87;1.65;;;;;;;8.16;86.20;100981.02;1753062;81;21619;-80
2022/01/01 04:56:18;;;;;;;3.62;1.62;;;;;;;8.21;86.26;100994.32;1752996;81;21200;-79
2022/01/01 04:58:40;;;;;;;1.87;1.32;;;;;;;8.23;86.19;100995.27;1751682;81;21140;-79
2022/01/01 05:01:07;;;;;;;2.50;1.35;;;;;;;8.24;86.23;100992.71;1752788;81;21620;-81
2022/01/01 05:03:33;;;;;;;2.60;1.60;;;;;;;8.24;86.17;100998.35;1752767;80;23027;-81
2022/01/01 05:06:00;;;;;;;2.15;1.45;;;;;;;8.24;86.08;101002.28;1752911;80;21070;-81
2022/01/01 05:08:27;;;;;;;3.10;1.62;;;;;;;8.25;86.07;100999.73;1753287;81;21284;-81
2022/01/01 05:10:54;;;;;;;2.77;1.72;;;;;;;8.25;86.00;101011.53;1753048;80;21066;-80
2022/01/01 05:13:20;;;;;;;1.95;1.55;;;;;;;8.25;85.98;101025.06;1753210;81;21059;-81
2022/01/01 05:15:50;;;;;;;2.60;1.65;;;;;;;8.22;85.94;101021.92;1753164;80;21750;-81
2022/01/01 05:18:16;;;;;;;2.33;1.65;;;;;;;8.23;85.93;101028.05;1752777;80;21122;-80
2022/01/01 05:20:43;;;;;;;3.40;1.70;;;;;;;8.23;85.96;101020.19;1753085;80;21138;-80
2022/01/01 05:23:09;;;;;;;1.98;1.37;;;;;;;8.24;85.97;101028.51;1753008;80;21244;-81
2022/01/01 05:25:36;;;;;;;2.75;1.60;;;;;;;8.24;85.89;101039.92;1753263;81;21113;-82
2022/01/01 05:28:03;;;;;;;2.50;1.62;;;;;;;8.24;85.88;101032.05;1753022;81;21763;-80
2022/01/01 05:30:29;;;;;;;1.90;1.05;;;;;;;8.25;85.86;101025.95;1753175;81;21126;-79
2022/01/01 05:32:58;;;;;;;2.47;1.50;;;;;;;8.25;85.80;101024.64;1753325;80;21659;-79
2022/01/01 05:35:25;;;;;;;2.22;1.50;;;;;;;8.24;85.76;101037.69;1723887;81;21562;-79
2022/01/01 05:37:52;;;;;;;3.40;1.67;;;;;;;8.24;85.73;101033.75;1752858;81;37195;-80
2022/01/01 05:40:21;;;;;;;2.30;1.40;;;;;;;8.24;85.69;101041.63;1751806;80;21161;-80
2022/01/01 05:42:47;;;;;;;2.60;1.30;;;;;;;8.24;85.66;101049.09;1752368;81;21137;-80
2022/01/01 05:45:14;;;;;;;2.33;1.37;;;;;;;8.24;85.70;101039.92;1690706;84;21086;-75
2022/01/01 05:47:41;;;;;;;1.75;1.47;;;;;;;8.24;85.64;101043.85;1722748;83;21087;-75
2022/01/01 05:50:09;;;;;;;2.65;1.27;;;;;;;8.22;85.57;101044.21;1703687;84;21054;-74
2022/01/01 05:52:36;;;;;;;3.42;1.47;;;;;;;8.20;85.64;101035.36;1690501;83;21366;-74
2022/01/01 05:55:02;;;;;;;2.10;1.35;;;;;;;8.20;85.63;101051.09;1689134;84;21074;-74
2022/01/01 05:57:29;;;;;;;19.37;15.38;;;;;;;8.20;85.57;101049.78;1719633;83;21604;-75
2022/01/01 05:59:58;;;;;;;3.37;2.20;;;;;;;8.16;85.53;101043.55;1722569;83;21100;-75
2022/01/01 06:02:25;;;;;;;2.67;1.32;;;;;;;8.13;85.57;101043.42;1719521;83;21207;-75
2022/01/01 06:04:52;;;;;;;2.62;1.50;;;;;;;8.14;85.56;101051.75;1722575;82;21749;-75
2022/01/01 06:07:18;;;;;;;2.72;1.42;;;;;;;8.15;85.59;101058.80;1722296;83;21180;-74
2022/01/01 06:09:45;;;;;;;2.52;1.50;;;;;;;8.14;85.55;101060.92;1722550;83;21067;-74
2022/01/01 06:12:12;;;;;;;2.55;1.52;;;;;;;8.13;85.47;101062.20;1722548;83;21047;-74
2022/01/01 06:14:39;;;;;;;1.52;1.37;;;;;;;8.11;85.43;101067.37;1722515;82;21087;-75
2022/01/01 06:17:05;;;;;;;2.52;1.45;;;;;;;8.12;85.46;101076.12;1703800;84;22032;-74
2022/01/01 06:19:32;;;;;;;1.57;1.32;;;;;;;8.10;85.40;101080.42;1690517;84;21079;-75
2022/01/01 06:21:58;;;;;;;3.25;1.22;;;;;;;8.08;85.40;101080.35;1688990;84;21161;-75
2022/01/01 06:24:25;;;;;;;1.80;1.35;;;;;;;8.08;85.43;101087.33;1719423;83;21106;-74
2022/01/01 06:26:52;;;;;;;1.57;1.30;;;;;;;8.08;85.43;101086.91;1722556;82;21134;-75
2022/01/01 06:29:18;;;;;;;1.65;1.40;;;;;;;8.07;85.41;101078.58;1722734;82;23041;-75
2022/01/01 06:31:45;;;;;;;2.50;1.35;;;;;;;8.08;85.36;101080.35;1722503;83;21168;-75
2022/01/01 06:34:12;;;;;;;2.27;1.40;;;;;;;8.06;85.36;101084.64;1719776;82;21199;-75
2022/01/01 06:36:38;;;;;;;2.25;1.57;;;;;;;8.06;85.37;101087.27;1722908;83;21086;-76
2022/01/01 06:39:05;;;;;;;8.90;6.42;;;;;;;8.04;85.32;101086.73;1703570;84;21564;-75
2022/01/01 06:41:32;;;;;;;4.35;2.10;;;;;;;8.03;85.38;101088.44;1690259;84;21764;-75
2022/01/01 06:43:58;;;;;;;2.55;1.60;;;;;;;8.02;85.36;101099.77;1688721;84;21079;-75
2022/01/01 06:46:25;;;;;;;2.35;1.70;;;;;;;8.01;85.34;101101.91;1718735;83;21553;-75
2022/01/01 06:48:52;;;;;;;2.98;1.80;;;;;;;7.99;85.35;101104.87;1724267;82;21059;-74
2022/01/01 06:51:19;;;;;;;2.10;1.70;;;;;;;8.00;85.36;101114.97;1724767;82;21552;-75
2022/01/01 06:53:45;;;;;;;4.03;1.67;;;;;;;7.99;85.37;101121.92;1724690;82;21763;-75
2022/01/01 06:56:12;;;;;;;2.70;1.77;;;;;;;7.98;85.35;101134.14;1724652;82;21602;-74
2022/01/01 06:58:39;;;;;;;2.15;1.47;;;;;;;8.00;85.34;101141.19;1724651;83;21063;-74
2022/01/01 07:01:05;;;;;;;2.17;1.40;;;;;;;7.98;85.33;101142.00;1724626;82;21705;-76
2022/01/01 07:03:32;;;;;;;4.37;2.47;;;;;;;7.98;85.28;101153.80;1724226;82;21110;-76
2022/01/01 07:05:59;;;;;;;3.05;1.90;;;;;;;7.95;85.28;101156.28;1724170;82;21696;-76
2022/01/01 07:08:26;;;;;;;3.17;2.00;;;;;;;7.98;85.36;101162.09;1724118;82;21054;-76
2022/01/01 07:10:52;;;;;;;5.33;2.00;;;;;;;7.98;85.29;101164.28;1724276;82;21118;-74
2022/01/01 07:13:19;;;;;;;3.05;1.60;;;;;;;7.98;85.30;101169.53;1724328;82;21067;-74
2022/01/01 07:15:46;;;;;;;5.10;1.85;;;;;;;7.99;85.27;101176.97;1724158;83;21122;-74
2022/01/01 07:18:12;;;;;;;3.72;1.65;;;;;;;8.01;85.30;101181.86;1724510;82;21762;-74
2022/01/01 07:20:39;;;;;;;5.53;2.12;;;;;;;8.03;85.27;101177.58;1724341;83;21122;-76
2022/01/01 07:23:06;;;;;;;4.42;2.17;;;;;;;8.06;85.25;101188.63;1724709;82;21121;-76
2022/01/01 07:25:32;;;;;;;3.83;2.12;;;;;;;8.04;85.19;101175.45;1724387;82;21042;-76
2022/01/01 07:27:59;;;;;;;4.28;2.00;;;;;;;8.08;85.18;101185.23;1724386;82;21067;-76
2022/01/01 07:30:26;;;;;;;3.50;2.30;;;;;;;8.06;85.09;101180.76;1724330;82;21756;-75
2022/01/01 07:32:53;;;;;;;5.15;2.67;;;;;;;8.09;85.17;101188.73;1724300;82;21075;-74
2022/01/01 07:35:20;;;;;;;22.93;16.80;;;;;;;8.09;85.10;101194.90;1707547;83;21510;-75
2022/01/01 07:37:47;;;;;;;5.60;3.22;;;;;;;8.12;85.06;101201.56;1724308;83;21102;-75
2022/01/01 07:40:15;;;;;;;10.55;5.50;;;;;;;8.12;85.00;101207.23;1724606;83;21012;-74
2022/01/01 07:42:43;;;;;;;4.60;2.90;;;;;;;8.12;84.97;101208.54;1724722;83;21959;-75
2022/01/01 07:45:10;;;;;;;5.58;2.60;;;;;;;8.13;84.98;101219.09;1721362;81;21040;-75
2022/01/01 07:47:37;;;;;;;6.45;2.58;;;;;;;8.15;84.96;101226.61;1719670;83;21079;-75
2022/01/01 07:50:06;;;;;;;6.47;3.02;;;;;;;8.16;84.92;101220.55;1720221;83;21083;-75
2022/01/01 07:52:32;;;;;;;4.37;2.52;;;;;;;8.18;84.87;101228.45;1720207;83;21083;-75
2022/01/01 07:54:59;;;;;;;5.97;2.83;;;;;;;8.20;84.86;101231.15;1742531;80;22963;-75
2022/01/01 07:57:25;;;;;;;3.90;2.60;;;;;;;8.18;84.75;101233.31;1761261;80;20996;-74
2022/01/01 07:59:52;;;;;;;5.25;2.42;;;;;;;8.18;84.72;101235.02;1760385;80;21789;-75
2022/01/01 08:02:19;;;;;;;7.25;3.17;;;;;;;8.21;84.77;101238.20;1767946;79;21078;-74
2022/01/01 08:04:47;;;;;;;6.47;2.95;;;;;;;8.24;84.70;101244.47;1762366;80;21608;-74
2022/01/01 08:07:14;;;;;;;7.28;3.95;;;;;;;8.26;84.69;101247.13;1751166;81;21784;-75
2022/01/01 08:09:41;;;;;;;8.00;3.65;;;;;;;8.28;84.62;101242.88;1751303;81;21047;-75
2022/01/01 08:12:10;;;;;;;6.60;3.27;;;;;;;8.30;84.60;101239.91;1750617;81;21043;-75
2022/01/01 08:14:37;;;;;;;8.83;3.47;;;;;;;8.32;84.55;101252.23;1751476;81;21063;-75
2022/01/01 08:17:05;;;;;;;6.05;2.92;;;;;;;8.34;84.46;101257.55;1734145;81;21157;-74
2022/01/01 08:19:32;;;;;;;10.58;5.45;;;;;;;8.36;84.43;101259.82;1751721;81;21778;-74
2022/01/01 08:21:59;;;;;;;11.63;7.50;;;;;;;8.36;84.37;101271.20;1751495;81;21113;-75
2022/01/01 08:24:26;;;;;;;10.18;3.70;;;;;;;8.38;84.27;101268.65;1733886;81;21625;-75
2022/01/01 08:26:53;;;;;;;10.30;4.75;;;;;;;8.38;84.19;101273.47;1751234;81;21141;-74
2022/01/01 08:29:20;;;;;;;8.08;3.35;;;;;;;8.42;84.25;101281.09;1752946;80;21081;-74
2022/01/01 08:31:51;;;;;;;10.00;3.83;;;;;;;8.43;84.15;101284.60;1752364;81;21800;-74
2022/01/01 08:34:20;;;;;;;10.25;3.40;;;;;;;8.44;84.04;101287.30;1752159;81;21049;-74
2022/01/01 08:36:53;;;;;;;7.72;3.15;;;;;;;8.46;84.06;101295.23;1721476;82;21089;-75
2022/01/01 08:39:18;;;;;;;6.80;3.40;;;;;;;8.44;83.82;101283.78;1767291;80;21129;-75
2022/01/01 08:41:45;;;;;;;7.30;3.05;;;;;;;8.38;83.72;101304.95;1770823;80;21074;-75
2022/01/01 08:44:12;;;;;;;8.85;3.30;;;;;;;8.32;83.37;101329.61;1772493;80;21887;-75
2022/01/01 08:46:39;;;;;;;8.40;3.00;;;;;;;8.21;83.41;101320.81;1785609;80;21077;-75
2022/01/01 08:49:06;;;;;;;5.33;3.10;;;;;;;8.12;83.52;101330.47;1785826;80;21457;-75
2022/01/01 08:51:47;;;;;;;9.10;3.60;;;;;;;8.03;83.70;101322.19;1786068;80;21034;-74
2022/01/01 08:54:15;;;;;;;9.83;3.58;;;;;;;7.96;83.82;101344.20;1754795;80;21508;-76
2022/01/01 08:56:44;;;;;;;7.37;3.47;;;;;;;7.92;83.92;101352.77;1785436;80;21743;-76
2022/01/01 08:59:11;;;;;;;10.25;5.62;;;;;;;7.88;83.88;101345.59;1785651;80;21081;-74
2022/01/01 09:01:38;;;;;;;17.57;8.93;;;;;;;7.89;83.67;101350.00;1778195;80;21599;-74
2022/01/01 09:04:07;;;;;;;6.75;3.90;;;;;;;7.92;83.79;101362.33;1786021;80;21105;-82
2022/01/01 09:06:45;;;;;;;8.50;3.65;;;;;;;7.93;83.58;101362.41;1785677;80;21853;-85
2022/01/01 09:09:15;;;;;;;8.63;3.12;;;;;;;7.94;83.14;101369.46;1783787;80;21186;-86
2022/01/01 09:11:47;;;;;;;8.10;2.70;;;;;;;7.93;82.76;101374.62;1755190;80;27287;-82
2022/01/01 09:14:14;;;;;;;8.68;3.12;;;;;;;7.93;82.43;101389.94;1754831;80;21611;-75
2022/01/01 09:16:41;;;;;;;6.75;2.70;;;;;;;7.95;82.44;101383.03;1785226;80;21031;-76
2022/01/01 09:19:11;;;;;;;7.65;2.40;;;;;;;7.97;82.23;101385.30;1785829;80;21058;-84
2022/01/01 09:21:36;;;;;;;6.75;3.22;;;;;;;8.01;82.27;101390.70;1776928;79;21931;-78
2022/01/01 09:24:03;;;;;;;7.78;3.08;;;;;;;8.04;82.34;101399.61;1785111;80;21601;-76
2022/01/01 09:26:30;;;;;;;7.62;2.67;;;;;;;8.06;82.21;101403.62;1785203;80;21083;-76
2022/01/01 09:28:57;;;;;;;9.05;2.87;;;;;;;8.09;82.04;101408.98;1784593;80;21050;-76
2022/01/01 09:31:24;;;;;;;7.72;2.52;;;;;;;8.12;82.00;101416.58;1776449;79;21419;-76
2022/01/01 09:33:50;;;;;;;8.35;2.58;;;;;;;8.14;81.75;101411.41;1784697;80;21795;-74
2022/01/01 09:36:18;;;;;;;7.53;2.42;;;;;;;8.18;81.73;101415.56;1776874;80;21039;-74
2022/01/01 09:38:45;;;;;;;6.80;3.37;;;;;;;8.20;81.64;101420.85;1784954;80;21055;-74
2022/01/01 09:41:13;;;;;;;8.20;3.15;;;;;;;8.25;81.57;101436.39;1784602;80;21218;-80
2022/01/01 09:43:40;;;;;;;13.28;6.95;;;;;;;8.27;81.32;101436.05;1776380;80;21054;-74
2022/01/01 09:46:07;;;;;;;8.28;3.05;;;;;;;8.28;81.21;101443.10;1784220;79;21913;-73
2022/01/01 09:48:33;;;;;;;9.98;3.00;;;;;;;8.27;81.15;101436.47;1776524;80;21086;-74
2022/01/01 09:51:03;;;;;;;8.00;2.87;;;;;;;8.30;80.95;101445.38;1785060;80;21085;-74
2022/01/01 09:53:30;;;;;;;8.48;3.50;;;;;;;8.28;80.75;101443.52;1785064;80;21078;-74
2022/01/01 09:56:00;;;;;;;10.78;3.08;;;;;;;8.26;80.73;101454.33;1776619;80;21612;-74
2022/01/01 09:58:30;;;;;;;11.85;5.55;;;;;;;8.24;80.69;101451.66;1776856;80;22572;-79
2022/01/01 10:00:57;;;;;;;13.00;7.40;;;;;;;8.23;80.60;101457.72;1776975;80;21082;-80
2022/01/01 10:03:38;;;;;;;9.20;4.72;;;;;;;8.23;80.71;101472.14;1776946;79;21066;-80
2022/01/01 10:06:15;;;;;;;11.45;7.08;;;;;;;8.25;80.73;101469.17;1785251;80;21117;-79
2022/01/01 10:08:51;;;;;;;11.15;5.70;;;;;;;8.28;80.62;101477.63;1776299;79;21089;-78
2022/01/01 10:11:18;;;;;;;8.85;3.67;;;;;;;8.27;80.61;101487.19;1738226;80;21842;-80
2022/01/01 10:13:46;;;;;;;11.68;4.80;;;;;;;8.24;80.56;101489.70;1785465;80;21098;-79
2022/01/01 10:16:13;;;;;;;6.20;3.45;;;;;;;8.25;80.58;101494.52;1777277;79;21039;-79
2022/01/01 10:18:44;;;;;;;9.68;4.42;;;;;;;8.25;80.49;101498.03;1785306;80;21059;-79
2022/01/01 10:21:13;;;;;;;15.32;7.15;;;;;;;8.22;80.40;101505.77;1785490;80;21663;-82
2022/01/01 10:23:43;;;;;;;10.18;6.58;;;;;;;8.23;80.57;101511.48;1777360;79;22574;-79
2022/01/01 10:29:16;;;;;;;10.13;4.90;;;;;;;8.21;80.47;101510.95;1776911;80;21051;-81
2022/01/01 10:32:02;;;;;;;42.65;26.68;;;;;;;8.20;80.57;101522.24;1750667;80;21532;-81
2022/01/01 10:34:37;;;;;;;20.75;13.00;;;;;;;8.19;80.53;101527.91;1783831;78;21160;-74
2022/01/01 10:37:06;;;;;;;18.23;12.28;;;;;;;8.13;80.42;101526.32;1785084;79;21735;-81
2022/01/01 10:39:32;;;;;;;13.03;6.25;;;;;;;8.09;80.50;101530.52;1785153;80;21093;-76
2022/01/01 10:42:03;;;;;;;13.78;5.47;;;;;;;8.09;80.61;101536.15;1751821;79;21086;-77
2022/01/01 10:44:40;;;;;;;10.38;5.47;;;;;;;8.05;80.52;101539.45;1755667;80;21620;-77
2022/01/01 10:47:18;;;;;;;12.60;5.75;;;;;;;8.03;80.56;101543.73;1755731;81;21155;-82
2022/01/01 10:52:29;;;;;;;13.53;7.50;;;;;;;7.93;80.68;101544.59;1756454;81;20992;-80
2022/01/01 10:55:06;;;;;;;15.78;7.37;;;;;;;7.87;80.68;101549.97;1784867;80;21101;-80
2022/01/01 10:57:36;;;;;;;11.65;6.28;;;;;;;7.82;80.89;101552.35;1770782;80;21051;-78
2022/01/01 11:00:11;;;;;;;15.85;6.47;;;;;;;7.80;80.90;101561.87;1744628;80;21075;-81
2022/01/01 11:02:42;;;;;;;13.08;6.60;;;;;;;7.77;80.96;101563.94;1770649;80;21811;-81
2022/01/01 11:05:09;;;;;;;11.48;5.97;;;;;;;7.77;80.98;101570.48;1722286;82;21138;-81
2022/01/01 11:07:36;;;;;;;11.00;5.10;;;;;;;7.78;81.01;101573.58;1754370;80;21671;-81
2022/01/01 11:10:04;;;;;;;12.35;5.67;;;;;;;7.80;81.04;101564.48;1756871;80;21097;-82
2022/01/01 11:12:31;;;;;;;12.90;5.08;;;;;;;7.80;80.83;101568.42;1756979;80;21082;-79
2022/01/01 11:15:01;;;;;;;12.37;5.87;;;;;;;7.78;80.66;101569.64;1753863;81;21739;-83
2022/01/01 11:17:28;;;;;;;8.93;4.47;;;;;;;7.77;80.74;101575.73;1723833;82;21082;-80
2022/01/01 11:19:57;;;;;;;8.33;4.03;;;;;;;7.72;80.44;101571.08;1723912;82;21069;-81
2022/01/01 11:22:23;;;;;;;11.50;4.62;;;;;;;7.67;80.32;101571.25;1768416;81;21103;-82
2022/01/01 11:24:50;;;;;;;13.50;4.22;;;;;;;7.53;80.40;101555.75;1768063;81;21125;-80
2022/01/01 11:27:19;;;;;;;6.03;3.50;;;;;;;7.53;80.55;101562.30;1739457;81;22641;-82
2022/01/01 11:29:50;;;;;;;10.40;3.42;;;;;;;7.59;80.22;101591.42;1767285;81;21664;-80
2022/01/01 11:32:17;;;;;;;7.70;3.40;;;;;;;7.24;80.05;101535.92;1722603;81;21083;-80
2022/01/01 11:34:44;;;;;;;6.15;2.83;;;;;;;7.49;80.05;101589.17;1754480;80;21074;-74
2022/01/01 11:37:14;;;;;;;6.72;3.50;;;;;;;7.47;79.97;101581.64;1695193;83;21077;-80
2022/01/01 11:39:43;;;;;;;8.10;2.98;;;;;;;7.51;80.02;101587.94;1671105;84;21765;-80
2022/01/01 11:42:16;;;;;;;5.85;3.40;;;;;;;7.55;79.93;101585.95;1676207;84;21093;-81
2022/01/01 11:44:57;;;;;;;8.25;3.98;;;;;;;7.54;79.84;101588.97;1717484;82;21165;-83